sensor_id;sensor_type;location;lat;lon;timestamp;P1;durP1;ratioP1;P2;durP2;ratioP2
3916;SDS011;1973;50.518;7.318;2023-05-14T00:00:03;8.00;;;6.10;;
3916;SDS011;1973;50.518;7.318;2023-05-14T00:02:31;8.13;;;5.53;;
3916;SDS011;1973;50.518;7.318;2023-05-14T00:04:58;8.10;;;5.80;;
3916;SDS011;1973;50.518;7.318;2023-05-14T00:07:24;6.23;;;5.73;;
3916;SDS011;1973;50.518;7.318;2023-05-14T00:09:56;9.50;;;5.83;;
3916;SDS011;1973;50.518;7.318;2023-05-14T00:12:23;7.40;;;6.00;;
3916;SDS011;1973;50.518;7.318;2023-05-14T00:14:49;5.80;;;5.40;;
3916;SDS011;1973;50.518;7.318;2023-05-14T00:17:16;5.97;;;5.40;;
3916;SDS011;1973;50.518;7.318;2023-05-14T00:19:42;6.40;;;5.77;;
3916;SDS011;1973;50.518;7.318;2023-05-14T00:22:09;6.30;;;5.70;;
3916;SDS011;1973;50.518;7.318;2023-05-14T00:24:36;8.37;;;6.57;;
3916;SDS011;1973;50.518;7.318;2023-05-14T00:27:02;6.83;;;6.23;;
3916;SDS011;1973;50.518;7.318;2023-05-14T00:29:29;7.17;;;6.43;;
3916;SDS011;1973;50.518;7.318;2023-05-14T00:31:55;6.13;;;5.53;;
3916;SDS011;1973;50.518;7.318;2023-05-14T00:34:22;7.00;;;5.40;;
3916;SDS011;1973;50.518;7.318;2023-05-14T00:36:49;8.30;;;6.30;;
3916;SDS011;1973;50.518;7.318;2023-05-14T00:39:16;8.10;;;6.70;;
3916;SDS011;1973;50.518;7.318;2023-05-14T00:41:42;9.03;;;7.07;;
3916;SDS011;1973;50.518;7.318;2023-05-14T00:44:09;6.80;;;6.20;;
3916;SDS011;1973;50.518;7.318;2023-05-14T00:46:35;10.30;;;7.27;;
3916;SDS011;1973;50.518;7.318;2023-05-14T00:49:02;8.83;;;7.93;;
3916;SDS011;1973;50.518;7.318;2023-05-14T00:51:28;8.30;;;6.87;;
3916;SDS011;1973;50.518;7.318;2023-05-14T00:53:55;7.10;;;6.40;;
3916;SDS011;1973;50.518;7.318;2023-05-14T00:56:22;7.33;;;6.10;;
3916;SDS011;1973;50.518;7.318;2023-05-14T00:58:49;6.77;;;5.73;;
3916;SDS011;1973;50.518;7.318;2023-05-14T01:01:16;6.60;;;6.00;;
3916;SDS011;1973;50.518;7.318;2023-05-14T01:03:43;8.37;;;6.07;;
3916;SDS011;1973;50.518;7.318;2023-05-14T01:08:51;6.93;;;6.23;;
3916;SDS011;1973;50.518;7.318;2023-05-14T01:11:25;7.13;;;6.43;;
3916;SDS011;1973;50.518;7.318;2023-05-14T01:16:55;9.70;;;6.40;;
3916;SDS011;1973;50.518;7.318;2023-05-14T01:19:42;6.53;;;5.80;;
3916;SDS011;1973;50.518;7.318;2023-05-14T01:22:10;12.13;;;6.67;;
3916;SDS011;1973;50.518;7.318;2023-05-14T01:24:37;6.80;;;6.20;;
3916;SDS011;1973;50.518;7.318;2023-05-14T01:30:22;7.97;;;6.60;;
3916;SDS011;1973;50.518;7.318;2023-05-14T01:32:57;7.40;;;6.27;;
3916;SDS011;1973;50.518;7.318;2023-05-14T01:35:26;8.90;;;6.77;;
3916;SDS011;1973;50.518;7.318;2023-05-14T01:37:54;7.67;;;6.27;;
3916;SDS011;1973;50.518;7.318;2023-05-14T01:40:23;8.87;;;6.20;;
3916;SDS011;1973;50.518;7.318;2023-05-14T01:42:51;8.77;;;6.10;;
3916;SDS011;1973;50.518;7.318;2023-05-14T01:45:21;7.07;;;6.47;;
3916;SDS011;1973;50.518;7.318;2023-05-14T01:47:49;6.93;;;6.03;;
3916;SDS011;1973;50.518;7.318;2023-05-14T01:50:16;7.47;;;6.60;;
3916;SDS011;1973;50.518;7.318;2023-05-14T01:52:43;7.47;;;6.60;;
3916;SDS011;1973;50.518;7.318;2023-05-14T01:55:09;7.30;;;6.60;;
3916;SDS011;1973;50.518;7.318;2023-05-14T01:57:36;7.00;;;6.30;;
3916;SDS011;1973;50.518;7.318;2023-05-14T02:00:02;6.40;;;5.80;;
3916;SDS011;1973;50.518;7.318;2023-05-14T02:02:29;6.67;;;6.07;;
3916;SDS011;1973;50.518;7.318;2023-05-14T02:04:56;7.23;;;6.40;;
3916;SDS011;1973;50.518;7.318;2023-05-14T02:07:22;7.37;;;6.67;;
3916;SDS011;1973;50.518;7.318;2023-05-14T02:09:49;7.80;;;6.10;;
3916;SDS011;1973;50.518;7.318;2023-05-14T02:12:15;6.40;;;5.87;;
3916;SDS011;1973;50.518;7.318;2023-05-14T02:14:42;6.20;;;5.70;;
3916;SDS011;1973;50.518;7.318;2023-05-14T02:17:08;11.43;;;6.43;;
3916;SDS011;1973;50.518;7.318;2023-05-14T02:19:35;6.97;;;6.37;;
3916;SDS011;1973;50.518;7.318;2023-05-14T02:22:01;7.73;;;7.03;;
3916;SDS011;1973;50.518;7.318;2023-05-14T02:24:28;9.63;;;6.77;;
3916;SDS011;1973;50.518;7.318;2023-05-14T02:26:54;7.47;;;6.80;;
3916;SDS011;1973;50.518;7.318;2023-05-14T02:29:21;9.83;;;6.53;;
3916;SDS011;1973;50.518;7.318;2023-05-14T02:31:47;7.10;;;6.50;;
3916;SDS011;1973;50.518;7.318;2023-05-14T02:34:14;7.77;;;6.23;;
3916;SDS011;1973;50.518;7.318;2023-05-14T02:36:41;13.70;;;6.60;;
3916;SDS011;1973;50.518;7.318;2023-05-14T02:39:07;9.43;;;6.73;;
3916;SDS011;1973;50.518;7.318;2023-05-14T02:41:34;7.00;;;6.30;;
3916;SDS011;1973;50.518;7.318;2023-05-14T02:44:00;7.10;;;6.50;;
3916;SDS011;1973;50.518;7.318;2023-05-14T02:46:27;6.97;;;6.37;;
3916;SDS011;1973;50.518;7.318;2023-05-14T02:48:53;7.70;;;6.93;;
3916;SDS011;1973;50.518;7.318;2023-05-14T02:51:20;7.37;;;6.63;;
3916;SDS011;1973;50.518;7.318;2023-05-14T02:53:46;7.00;;;6.40;;
3916;SDS011;1973;50.518;7.318;2023-05-14T02:56:13;10.40;;;7.10;;
3916;SDS011;1973;50.518;7.318;2023-05-14T02:58:39;8.80;;;6.97;;
3916;SDS011;1973;50.518;7.318;2023-05-14T03:01:06;8.90;;;6.47;;
3916;SDS011;1973;50.518;7.318;2023-05-14T03:03:34;7.57;;;6.80;;
3916;SDS011;1973;50.518;7.318;2023-05-14T03:06:01;7.17;;;6.40;;
3916;SDS011;1973;50.518;7.318;2023-05-14T03:08:27;7.57;;;6.87;;
3916;SDS011;1973;50.518;7.318;2023-05-14T03:10:54;9.80;;;7.83;;
3916;SDS011;1973;50.518;7.318;2023-05-14T03:13:20;8.67;;;7.70;;
3916;SDS011;1973;50.518;7.318;2023-05-14T03:15:47;8.67;;;6.90;;
3916;SDS011;1973;50.518;7.318;2023-05-14T03:18:13;8.50;;;7.60;;
3916;SDS011;1973;50.518;7.318;2023-05-14T03:20:40;8.17;;;7.47;;
3916;SDS011;1973;50.518;7.318;2023-05-14T03:23:07;7.90;;;7.10;;
3916;SDS011;1973;50.518;7.318;2023-05-14T03:25:33;7.87;;;6.60;;
3916;SDS011;1973;50.518;7.318;2023-05-14T03:27:59;7.40;;;6.80;;
3916;SDS011;1973;50.518;7.318;2023-05-14T03:30:26;7.97;;;7.27;;
3916;SDS011;1973;50.518;7.318;2023-05-14T03:32:52;7.40;;;6.70;;
3916;SDS011;1973;50.518;7.318;2023-05-14T03:35:19;8.80;;;7.70;;
3916;SDS011;1973;50.518;7.318;2023-05-14T03:37:45;7.50;;;6.80;;
3916;SDS011;1973;50.518;7.318;2023-05-14T03:40:12;8.10;;;7.00;;
3916;SDS011;1973;50.518;7.318;2023-05-14T03:42:38;7.83;;;6.83;;
3916;SDS011;1973;50.518;7.318;2023-05-14T03:45:05;7.17;;;6.47;;
3916;SDS011;1973;50.518;7.318;2023-05-14T03:47:32;6.93;;;6.33;;
3916;SDS011;1973;50.518;7.318;2023-05-14T03:49:58;7.60;;;6.30;;
3916;SDS011;1973;50.518;7.318;2023-05-14T03:52:25;7.47;;;6.37;;
3916;SDS011;1973;50.518;7.318;2023-05-14T03:54:51;8.10;;;6.90;;
3916;SDS011;1973;50.518;7.318;2023-05-14T03:57:18;7.10;;;6.50;;
3916;SDS011;1973;50.518;7.318;2023-05-14T03:59:44;7.80;;;7.10;;
3916;SDS011;1973;50.518;7.318;2023-05-14T04:02:10;8.27;;;6.87;;
3916;SDS011;1973;50.518;7.318;2023-05-14T04:04:37;8.43;;;7.27;;
3916;SDS011;1973;50.518;7.318;2023-05-14T04:07:03;8.70;;;7.80;;
3916;SDS011;1973;50.518;7.318;2023-05-14T04:09:30;8.30;;;7.50;;
3916;SDS011;1973;50.518;7.318;2023-05-14T04:11:56;9.23;;;8.33;;
3916;SDS011;1973;50.518;7.318;2023-05-14T04:14:23;8.63;;;7.73;;
3916;SDS011;1973;50.518;7.318;2023-05-14T04:16:50;8.10;;;7.30;;
3916;SDS011;1973;50.518;7.318;2023-05-14T04:19:16;9.43;;;8.47;;
3916;SDS011;1973;50.518;7.318;2023-05-14T04:21:43;9.70;;;8.70;;
3916;SDS011;1973;50.518;7.318;2023-05-14T04:24:10;9.40;;;7.50;;
3916;SDS011;1973;50.518;7.318;2023-05-14T04:26:36;9.10;;;8.00;;
3916;SDS011;1973;50.518;7.318;2023-05-14T04:29:03;10.93;;;8.50;;
3916;SDS011;1973;50.518;7.318;2023-05-14T04:31:29;9.47;;;8.30;;
3916;SDS011;1973;50.518;7.318;2023-05-14T04:33:56;18.57;;;8.77;;
3916;SDS011;1973;50.518;7.318;2023-05-14T04:36:23;11.33;;;9.27;;
3916;SDS011;1973;50.518;7.318;2023-05-14T04:38:49;12.07;;;8.57;;
3916;SDS011;1973;50.518;7.318;2023-05-14T04:41:16;13.20;;;9.10;;
3916;SDS011;1973;50.518;7.318;2023-05-14T04:43:43;11.50;;;8.53;;
3916;SDS011;1973;50.518;7.318;2023-05-14T04:46:09;9.90;;;8.47;;
3916;SDS011;1973;50.518;7.318;2023-05-14T04:48:36;10.13;;;9.03;;
3916;SDS011;1973;50.518;7.318;2023-05-14T04:51:03;10.63;;;9.53;;
3916;SDS011;1973;50.518;7.318;2023-05-14T04:53:32;11.87;;;10.27;;
3916;SDS011;1973;50.518;7.318;2023-05-14T04:55:58;11.73;;;8.80;;
3916;SDS011;1973;50.518;7.318;2023-05-14T04:58:25;11.90;;;9.90;;
3916;SDS011;1973;50.518;7.318;2023-05-14T05:00:53;14.57;;;9.70;;
3916;SDS011;1973;50.518;7.318;2023-05-14T05:03:20;11.93;;;9.97;;
3916;SDS011;1973;50.518;7.318;2023-05-14T05:05:47;16.60;;;9.73;;
3916;SDS011;1973;50.518;7.318;2023-05-14T05:08:13;13.97;;;9.53;;
3916;SDS011;1973;50.518;7.318;2023-05-14T05:10:39;16.00;;;10.37;;
3916;SDS011;1973;50.518;7.318;2023-05-14T05:13:06;15.13;;;11.40;;
3916;SDS011;1973;50.518;7.318;2023-05-14T05:15:32;11.13;;;9.53;;
3916;SDS011;1973;50.518;7.318;2023-05-14T05:17:59;13.50;;;9.90;;
3916;SDS011;1973;50.518;7.318;2023-05-14T05:20:25;14.80;;;9.90;;
3916;SDS011;1973;50.518;7.318;2023-05-14T05:22:53;21.17;;;12.50;;
3916;SDS011;1973;50.518;7.318;2023-05-14T05:25:20;23.57;;;14.50;;
3916;SDS011;1973;50.518;7.318;2023-05-14T05:27:46;40.47;;;20.13;;
3916;SDS011;1973;50.518;7.318;2023-05-14T05:30:13;26.30;;;16.03;;
3916;SDS011;1973;50.518;7.318;2023-05-14T05:32:39;22.00;;;14.13;;
3916;SDS011;1973;50.518;7.318;2023-05-14T05:35:06;22.90;;;15.80;;
3916;SDS011;1973;50.518;7.318;2023-05-14T05:37:32;18.80;;;12.70;;
3916;SDS011;1973;50.518;7.318;2023-05-14T05:39:59;26.03;;;15.30;;
3916;SDS011;1973;50.518;7.318;2023-05-14T05:42:25;53.67;;;14.37;;
3916;SDS011;1973;50.518;7.318;2023-05-14T05:44:52;20.17;;;12.43;;
3916;SDS011;1973;50.518;7.318;2023-05-14T05:47:18;24.00;;;12.87;;
3916;SDS011;1973;50.518;7.318;2023-05-14T05:49:44;17.43;;;12.93;;
3916;SDS011;1973;50.518;7.318;2023-05-14T05:52:11;14.07;;;10.63;;
3916;SDS011;1973;50.518;7.318;2023-05-14T05:54:37;21.40;;;11.90;;
3916;SDS011;1973;50.518;7.318;2023-05-14T05:57:04;15.40;;;11.30;;
3916;SDS011;1973;50.518;7.318;2023-05-14T05:59:31;17.53;;;11.77;;
3916;SDS011;1973;50.518;7.318;2023-05-14T06:01:57;14.97;;;11.43;;
3916;SDS011;1973;50.518;7.318;2023-05-14T06:04:24;16.43;;;10.60;;
3916;SDS011;1973;50.518;7.318;2023-05-14T06:06:50;15.10;;;11.33;;
3916;SDS011;1973;50.518;7.318;2023-05-14T06:09:17;13.80;;;11.27;;
3916;SDS011;1973;50.518;7.318;2023-05-14T06:11:43;13.30;;;11.33;;
3916;SDS011;1973;50.518;7.318;2023-05-14T06:14:10;13.73;;;12.40;;
3916;SDS011;1973;50.518;7.318;2023-05-14T06:16:36;15.50;;;13.10;;
3916;SDS011;1973;50.518;7.318;2023-05-14T06:19:03;15.13;;;13.53;;
3916;SDS011;1973;50.518;7.318;2023-05-14T06:21:29;15.80;;;13.07;;
3916;SDS011;1973;50.518;7.318;2023-05-14T06:23:56;16.73;;;13.17;;
3916;SDS011;1973;50.518;7.318;2023-05-14T06:26:23;19.73;;;14.30;;
3916;SDS011;1973;50.518;7.318;2023-05-14T06:28:50;20.20;;;13.57;;
3916;SDS011;1973;50.518;7.318;2023-05-14T06:31:17;17.70;;;14.40;;
3916;SDS011;1973;50.518;7.318;2023-05-14T06:33:43;19.77;;;14.90;;
3916;SDS011;1973;50.518;7.318;2023-05-14T06:36:10;22.87;;;14.87;;
3916;SDS011;1973;50.518;7.318;2023-05-14T06:38:36;17.00;;;13.70;;
3916;SDS011;1973;50.518;7.318;2023-05-14T06:41:03;18.40;;;14.17;;
3916;SDS011;1973;50.518;7.318;2023-05-14T06:43:29;25.17;;;18.17;;
3916;SDS011;1973;50.518;7.318;2023-05-14T06:45:56;35.57;;;22.27;;
3916;SDS011;1973;50.518;7.318;2023-05-14T06:48:22;26.87;;;18.50;;
3916;SDS011;1973;50.518;7.318;2023-05-14T06:50:49;23.60;;;19.50;;
3916;SDS011;1973;50.518;7.318;2023-05-14T06:53:15;30.33;;;18.80;;
3916;SDS011;1973;50.518;7.318;2023-05-14T06:55:42;29.03;;;19.70;;
3916;SDS011;1973;50.518;7.318;2023-05-14T06:58:08;30.50;;;18.80;;
3916;SDS011;1973;50.518;7.318;2023-05-14T07:00:35;28.90;;;21.00;;
3916;SDS011;1973;50.518;7.318;2023-05-14T07:03:01;30.90;;;22.53;;
3916;SDS011;1973;50.518;7.318;2023-05-14T07:05:28;39.70;;;25.40;;
3916;SDS011;1973;50.518;7.318;2023-05-14T07:07:54;37.63;;;25.73;;
3916;SDS011;1973;50.518;7.318;2023-05-14T07:10:21;42.50;;;24.53;;
3916;SDS011;1973;50.518;7.318;2023-05-14T07:12:48;45.77;;;29.23;;
3916;SDS011;1973;50.518;7.318;2023-05-14T07:15:15;50.20;;;31.00;;
3916;SDS011;1973;50.518;7.318;2023-05-14T07:17:41;41.47;;;29.33;;
3916;SDS011;1973;50.518;7.318;2023-05-14T07:20:08;39.83;;;26.90;;
3916;SDS011;1973;50.518;7.318;2023-05-14T07:22:35;27.60;;;23.27;;
3916;SDS011;1973;50.518;7.318;2023-05-14T07:25:01;29.97;;;20.33;;
3916;SDS011;1973;50.518;7.318;2023-05-14T07:27:28;20.50;;;17.10;;
3916;SDS011;1973;50.518;7.318;2023-05-14T07:29:54;23.47;;;18.50;;
3916;SDS011;1973;50.518;7.318;2023-05-14T07:32:21;25.77;;;20.00;;
3916;SDS011;1973;50.518;7.318;2023-05-14T07:34:47;29.07;;;20.40;;
3916;SDS011;1973;50.518;7.318;2023-05-14T07:37:14;26.67;;;18.60;;
3916;SDS011;1973;50.518;7.318;2023-05-14T07:39:40;24.47;;;18.73;;
3916;SDS011;1973;50.518;7.318;2023-05-14T07:42:07;26.07;;;19.83;;
3916;SDS011;1973;50.518;7.318;2023-05-14T07:44:34;29.90;;;19.33;;
3916;SDS011;1973;50.518;7.318;2023-05-14T07:47:00;25.20;;;19.30;;
3916;SDS011;1973;50.518;7.318;2023-05-14T07:49:27;24.73;;;17.33;;
3916;SDS011;1973;50.518;7.318;2023-05-14T07:51:53;17.83;;;15.47;;
3916;SDS011;1973;50.518;7.318;2023-05-14T07:54:20;20.10;;;15.53;;
3916;SDS011;1973;50.518;7.318;2023-05-14T07:56:46;18.33;;;14.90;;
3916;SDS011;1973;50.518;7.318;2023-05-14T07:59:12;18.00;;;14.70;;
3916;SDS011;1973;50.518;7.318;2023-05-14T08:01:39;17.70;;;15.53;;
3916;SDS011;1973;50.518;7.318;2023-05-14T08:04:05;17.47;;;14.23;;
3916;SDS011;1973;50.518;7.318;2023-05-14T08:06:32;14.77;;;13.30;;
3916;SDS011;1973;50.518;7.318;2023-05-14T08:08:59;15.07;;;12.47;;
3916;SDS011;1973;50.518;7.318;2023-05-14T08:11:25;16.70;;;11.80;;
3916;SDS011;1973;50.518;7.318;2023-05-14T08:13:52;12.63;;;11.33;;
3916;SDS011;1973;50.518;7.318;2023-05-14T08:16:18;16.70;;;13.23;;
3916;SDS011;1973;50.518;7.318;2023-05-14T08:18:45;13.33;;;12.03;;
3916;SDS011;1973;50.518;7.318;2023-05-14T08:21:11;12.80;;;11.47;;
3916;SDS011;1973;50.518;7.318;2023-05-14T08:23:38;11.07;;;9.93;;
3916;SDS011;1973;50.518;7.318;2023-05-14T08:26:04;13.13;;;11.40;;
3916;SDS011;1973;50.518;7.318;2023-05-14T08:28:31;12.63;;;11.10;;
3916;SDS011;1973;50.518;7.318;2023-05-14T08:30:57;11.50;;;10.30;;
3916;SDS011;1973;50.518;7.318;2023-05-14T08:33:24;12.30;;;11.10;;
3916;SDS011;1973;50.518;7.318;2023-05-14T08:35:51;12.60;;;9.90;;
3916;SDS011;1973;50.518;7.318;2023-05-14T08:38:18;11.43;;;10.30;;
3916;SDS011;1973;50.518;7.318;2023-05-14T08:40:48;11.77;;;10.57;;
3916;SDS011;1973;50.518;7.318;2023-05-14T08:43:25;13.13;;;11.77;;
3916;SDS011;1973;50.518;7.318;2023-05-14T08:45:53;11.33;;;10.13;;
3916;SDS011;1973;50.518;7.318;2023-05-14T08:48:24;11.30;;;10.30;;
3916;SDS011;1973;50.518;7.318;2023-05-14T08:50:54;11.10;;;9.93;;
3916;SDS011;1973;50.518;7.318;2023-05-14T08:53:21;11.73;;;10.50;;
3916;SDS011;1973;50.518;7.318;2023-05-14T08:55:47;13.87;;;12.40;;
3916;SDS011;1973;50.518;7.318;2023-05-14T08:58:16;12.53;;;11.33;;
3916;SDS011;1973;50.518;7.318;2023-05-14T09:00:42;11.47;;;10.40;;
3916;SDS011;1973;50.518;7.318;2023-05-14T09:03:09;11.23;;;10.20;;
3916;SDS011;1973;50.518;7.318;2023-05-14T09:05:37;12.67;;;10.10;;
3916;SDS011;1973;50.518;7.318;2023-05-14T09:08:04;13.10;;;11.80;;
3916;SDS011;1973;50.518;7.318;2023-05-14T09:10:30;11.93;;;10.60;;
3916;SDS011;1973;50.518;7.318;2023-05-14T09:12:57;11.07;;;9.97;;
3916;SDS011;1973;50.518;7.318;2023-05-14T09:15:24;10.80;;;9.63;;
3916;SDS011;1973;50.518;7.318;2023-05-14T09:17:54;10.47;;;9.37;;
3916;SDS011;1973;50.518;7.318;2023-05-14T09:20:21;9.50;;;8.23;;
3916;SDS011;1973;50.518;7.318;2023-05-14T09:22:51;9.90;;;9.00;;
3916;SDS011;1973;50.518;7.318;2023-05-14T09:25:19;9.60;;;8.70;;
3916;SDS011;1973;50.518;7.318;2023-05-14T09:27:51;8.93;;;8.03;;
3916;SDS011;1973;50.518;7.318;2023-05-14T09:30:21;17.47;;;16.00;;
3916;SDS011;1973;50.518;7.318;2023-05-14T09:32:49;14.30;;;13.20;;
3916;SDS011;1973;50.518;7.318;2023-05-14T09:35:19;10.10;;;9.13;;
3916;SDS011;1973;50.518;7.318;2023-05-14T09:37:48;8.43;;;7.73;;
3916;SDS011;1973;50.518;7.318;2023-05-14T09:40:19;11.00;;;10.10;;
3916;SDS011;1973;50.518;7.318;2023-05-14T09:42:47;9.90;;;9.00;;
3916;SDS011;1973;50.518;7.318;2023-05-14T09:45:14;8.30;;;7.53;;
3916;SDS011;1973;50.518;7.318;2023-05-14T09:47:42;7.90;;;7.10;;
3916;SDS011;1973;50.518;7.318;2023-05-14T09:50:10;6.80;;;6.10;;
3916;SDS011;1973;50.518;7.318;2023-05-14T09:52:37;7.37;;;6.60;;
3916;SDS011;1973;50.518;7.318;2023-05-14T09:55:04;6.77;;;6.20;;
3916;SDS011;1973;50.518;7.318;2023-05-14T09:57:31;7.87;;;6.50;;
3916;SDS011;1973;50.518;7.318;2023-05-14T09:59:58;7.50;;;6.80;;
3916;SDS011;1973;50.518;7.318;2023-05-14T10:02:25;8.67;;;5.90;;
3916;SDS011;1973;50.518;7.318;2023-05-14T10:04:56;6.20;;;5.70;;
3916;SDS011;1973;50.518;7.318;2023-05-14T10:07:28;6.57;;;5.87;;
3916;SDS011;1973;50.518;7.318;2023-05-14T10:10:01;6.87;;;6.27;;
3916;SDS011;1973;50.518;7.318;2023-05-14T10:12:32;7.13;;;6.50;;
3916;SDS011;1973;50.518;7.318;2023-05-14T10:15:03;6.70;;;6.10;;
3916;SDS011;1973;50.518;7.318;2023-05-14T10:17:36;10.60;;;9.60;;
3916;SDS011;1973;50.518;7.318;2023-05-14T10:20:06;8.30;;;7.50;;
3916;SDS011;1973;50.518;7.318;2023-05-14T10:22:34;7.00;;;6.40;;
3916;SDS011;1973;50.518;7.318;2023-05-14T10:25:01;7.73;;;7.03;;
3916;SDS011;1973;50.518;7.318;2023-05-14T10:27:29;7.53;;;6.23;;
3916;SDS011;1973;50.518;7.318;2023-05-14T10:29:55;5.97;;;5.47;;
3916;SDS011;1973;50.518;7.318;2023-05-14T10:32:23;7.07;;;6.47;;
3916;SDS011;1973;50.518;7.318;2023-05-14T10:34:51;5.53;;;5.03;;
3916;SDS011;1973;50.518;7.318;2023-05-14T10:37:22;5.97;;;5.43;;
3916;SDS011;1973;50.518;7.318;2023-05-14T10:44:56;6.20;;;5.60;;
3916;SDS011;1973;50.518;7.318;2023-05-14T10:47:27;5.80;;;5.30;;
3916;SDS011;1973;50.518;7.318;2023-05-14T10:49:54;7.17;;;6.47;;
3916;SDS011;1973;50.518;7.318;2023-05-14T10:52:24;6.77;;;6.27;;
3916;SDS011;1973;50.518;7.318;2023-05-14T10:54:55;7.03;;;6.33;;
3916;SDS011;1973;50.518;7.318;2023-05-14T10:57:25;6.27;;;5.77;;
3916;SDS011;1973;50.518;7.318;2023-05-14T10:59:54;8.23;;;5.83;;
3916;SDS011;1973;50.518;7.318;2023-05-14T11:02:29;7.13;;;6.40;;
3916;SDS011;1973;50.518;7.318;2023-05-14T11:05:04;10.00;;;8.20;;
3916;SDS011;1973;50.518;7.318;2023-05-14T11:07:35;6.27;;;5.77;;
3916;SDS011;1973;50.518;7.318;2023-05-14T11:10:06;7.90;;;7.20;;
3916;SDS011;1973;50.518;7.318;2023-05-14T11:12:35;5.77;;;5.30;;
3916;SDS011;1973;50.518;7.318;2023-05-14T11:15:07;7.80;;;7.10;;
3916;SDS011;1973;50.518;7.318;2023-05-14T11:17:35;7.17;;;6.47;;
3916;SDS011;1973;50.518;7.318;2023-05-14T11:20:03;6.53;;;5.93;;
3916;SDS011;1973;50.518;7.318;2023-05-14T11:22:31;8.00;;;6.80;;
3916;SDS011;1973;50.518;7.318;2023-05-14T11:24:58;7.00;;;6.30;;
3916;SDS011;1973;50.518;7.318;2023-05-14T11:27:24;6.60;;;6.10;;
3916;SDS011;1973;50.518;7.318;2023-05-14T11:29:51;6.47;;;5.87;;
3916;SDS011;1973;50.518;7.318;2023-05-14T11:32:18;5.90;;;5.40;;
3916;SDS011;1973;50.518;7.318;2023-05-14T11:34:45;5.63;;;5.10;;
3916;SDS011;1973;50.518;7.318;2023-05-14T11:37:12;5.77;;;5.23;;
3916;SDS011;1973;50.518;7.318;2023-05-14T11:39:50;5.63;;;5.13;;
3916;SDS011;1973;50.518;7.318;2023-05-14T11:42:20;5.00;;;4.60;;
3916;SDS011;1973;50.518;7.318;2023-05-14T11:44:48;5.43;;;4.93;;
3916;SDS011;1973;50.518;7.318;2023-05-14T11:47:17;5.00;;;4.57;;
3916;SDS011;1973;50.518;7.318;2023-05-14T11:49:45;6.03;;;5.60;;
3916;SDS011;1973;50.518;7.318;2023-05-14T11:52:12;5.30;;;4.80;;
3916;SDS011;1973;50.518;7.318;2023-05-14T11:54:40;4.47;;;4.07;;
3916;SDS011;1973;50.518;7.318;2023-05-14T11:57:09;4.93;;;4.40;;
3916;SDS011;1973;50.518;7.318;2023-05-14T11:59:39;5.30;;;4.83;;
3916;SDS011;1973;50.518;7.318;2023-05-14T12:02:12;4.23;;;3.93;;
3916;SDS011;1973;50.518;7.318;2023-05-14T12:04:43;3.67;;;3.43;;
3916;SDS011;1973;50.518;7.318;2023-05-14T12:07:14;3.70;;;3.23;;
3916;SDS011;1973;50.518;7.318;2023-05-14T12:09:42;4.03;;;3.63;;
3916;SDS011;1973;50.518;7.318;2023-05-14T12:12:17;4.10;;;3.80;;
3916;SDS011;1973;50.518;7.318;2023-05-14T12:14:45;4.27;;;3.80;;
3916;SDS011;1973;50.518;7.318;2023-05-14T12:17:15;4.57;;;4.13;;
3916;SDS011;1973;50.518;7.318;2023-05-14T12:19:43;4.07;;;3.50;;
3916;SDS011;1973;50.518;7.318;2023-05-14T12:22:13;4.03;;;3.70;;
3916;SDS011;1973;50.518;7.318;2023-05-14T12:24:42;3.53;;;3.23;;
3916;SDS011;1973;50.518;7.318;2023-05-14T12:27:09;3.23;;;3.03;;
3916;SDS011;1973;50.518;7.318;2023-05-14T12:29:36;4.57;;;4.17;;
3916;SDS011;1973;50.518;7.318;2023-05-14T12:32:07;5.40;;;5.00;;
3916;SDS011;1973;50.518;7.318;2023-05-14T12:34:35;5.03;;;4.40;;
3916;SDS011;1973;50.518;7.318;2023-05-14T12:37:03;4.43;;;4.03;;
3916;SDS011;1973;50.518;7.318;2023-05-14T12:39:31;4.13;;;3.50;;
3916;SDS011;1973;50.518;7.318;2023-05-14T12:41:58;5.67;;;4.50;;
3916;SDS011;1973;50.518;7.318;2023-05-14T12:44:25;4.90;;;4.40;;
3916;SDS011;1973;50.518;7.318;2023-05-14T12:46:52;7.40;;;6.80;;
3916;SDS011;1973;50.518;7.318;2023-05-14T12:49:19;6.77;;;4.97;;
3916;SDS011;1973;50.518;7.318;2023-05-14T12:51:45;4.77;;;4.37;;
3916;SDS011;1973;50.518;7.318;2023-05-14T12:54:12;4.13;;;3.83;;
3916;SDS011;1973;50.518;7.318;2023-05-14T12:56:38;6.00;;;5.50;;
3916;SDS011;1973;50.518;7.318;2023-05-14T12:59:05;6.70;;;6.10;;
3916;SDS011;1973;50.518;7.318;2023-05-14T13:01:32;4.93;;;4.53;;
3916;SDS011;1973;50.518;7.318;2023-05-14T13:03:58;4.73;;;4.33;;
3916;SDS011;1973;50.518;7.318;2023-05-14T13:06:25;5.03;;;4.63;;
3916;SDS011;1973;50.518;7.318;2023-05-14T13:08:51;4.43;;;4.03;;
3916;SDS011;1973;50.518;7.318;2023-05-14T13:11:18;4.40;;;4.10;;
3916;SDS011;1973;50.518;7.318;2023-05-14T13:13:44;5.20;;;4.80;;
3916;SDS011;1973;50.518;7.318;2023-05-14T13:16:11;6.07;;;4.10;;
3916;SDS011;1973;50.518;7.318;2023-05-14T13:18:42;4.00;;;3.70;;
3916;SDS011;1973;50.518;7.318;2023-05-14T13:21:08;7.40;;;4.80;;
3916;SDS011;1973;50.518;7.318;2023-05-14T13:23:34;4.00;;;3.70;;
3916;SDS011;1973;50.518;7.318;2023-05-14T13:26:01;4.53;;;4.13;;
3916;SDS011;1973;50.518;7.318;2023-05-14T13:28:27;5.90;;;4.43;;
3916;SDS011;1973;50.518;7.318;2023-05-14T13:33:38;4.37;;;3.97;;
3916;SDS011;1973;50.518;7.318;2023-05-14T13:36:06;4.83;;;4.43;;
3916;SDS011;1973;50.518;7.318;2023-05-14T13:38:33;4.60;;;4.20;;
3916;SDS011;1973;50.518;7.318;2023-05-14T13:41:00;5.37;;;4.20;;
3916;SDS011;1973;50.518;7.318;2023-05-14T13:43:31;5.40;;;4.90;;
3916;SDS011;1973;50.518;7.318;2023-05-14T13:45:59;5.00;;;3.97;;
3916;SDS011;1973;50.518;7.318;2023-05-14T13:48:26;4.53;;;4.13;;
3916;SDS011;1973;50.518;7.318;2023-05-14T13:50:53;5.00;;;4.60;;
3916;SDS011;1973;50.518;7.318;2023-05-14T13:53:20;4.53;;;4.13;;
3916;SDS011;1973;50.518;7.318;2023-05-14T13:55:48;4.90;;;4.47;;
3916;SDS011;1973;50.518;7.318;2023-05-14T13:58:15;4.37;;;3.70;;
3916;SDS011;1973;50.518;7.318;2023-05-14T14:00:41;5.57;;;4.27;;
3916;SDS011;1973;50.518;7.318;2023-05-14T14:03:08;4.40;;;4.00;;
3916;SDS011;1973;50.518;7.318;2023-05-14T14:05:34;4.20;;;3.90;;
3916;SDS011;1973;50.518;7.318;2023-05-14T14:08:01;4.03;;;3.63;;
3916;SDS011;1973;50.518;7.318;2023-05-14T14:10:48;4.90;;;4.03;;
3916;SDS011;1973;50.518;7.318;2023-05-14T14:13:14;4.50;;;3.70;;
3916;SDS011;1973;50.518;7.318;2023-05-14T14:15:41;5.70;;;4.10;;
3916;SDS011;1973;50.518;7.318;2023-05-14T14:18:08;7.53;;;4.00;;
3916;SDS011;1973;50.518;7.318;2023-05-14T14:20:35;4.00;;;3.33;;
3916;SDS011;1973;50.518;7.318;2023-05-14T14:23:01;4.03;;;3.17;;
3916;SDS011;1973;50.518;7.318;2023-05-14T14:25:27;17.60;;;15.90;;
3916;SDS011;1973;50.518;7.318;2023-05-14T14:27:54;9.40;;;6.50;;
3916;SDS011;1973;50.518;7.318;2023-05-14T14:30:20;4.53;;;4.13;;
3916;SDS011;1973;50.518;7.318;2023-05-14T14:32:47;3.70;;;3.40;;
3916;SDS011;1973;50.518;7.318;2023-05-14T14:35:15;4.60;;;3.40;;
3916;SDS011;1973;50.518;7.318;2023-05-14T14:37:43;4.20;;;3.90;;
3916;SDS011;1973;50.518;7.318;2023-05-14T14:40:14;4.23;;;3.93;;
3916;SDS011;1973;50.518;7.318;2023-05-14T14:42:41;4.00;;;3.60;;
3916;SDS011;1973;50.518;7.318;2023-05-14T14:45:08;4.30;;;3.73;;
3916;SDS011;1973;50.518;7.318;2023-05-14T14:47:35;6.50;;;3.70;;
3916;SDS011;1973;50.518;7.318;2023-05-14T14:50:01;4.33;;;3.93;;
3916;SDS011;1973;50.518;7.318;2023-05-14T14:52:28;4.07;;;3.77;;
3916;SDS011;1973;50.518;7.318;2023-05-14T14:54:55;4.53;;;3.53;;
3916;SDS011;1973;50.518;7.318;2023-05-14T14:57:21;5.77;;;3.77;;
3916;SDS011;1973;50.518;7.318;2023-05-14T14:59:48;4.00;;;3.70;;
3916;SDS011;1973;50.518;7.318;2023-05-14T15:02:14;3.97;;;3.57;;
3916;SDS011;1973;50.518;7.318;2023-05-14T15:04:41;4.10;;;3.70;;
3916;SDS011;1973;50.518;7.318;2023-05-14T15:07:07;5.03;;;3.70;;
3916;SDS011;1973;50.518;7.318;2023-05-14T15:09:34;4.07;;;3.70;;
3916;SDS011;1973;50.518;7.318;2023-05-14T15:12:00;4.00;;;3.40;;
3916;SDS011;1973;50.518;7.318;2023-05-14T15:14:27;5.97;;;3.13;;
3916;SDS011;1973;50.518;7.318;2023-05-14T15:16:53;3.17;;;2.97;;
3916;SDS011;1973;50.518;7.318;2023-05-14T15:19:20;3.50;;;3.20;;
3916;SDS011;1973;50.518;7.318;2023-05-14T15:21:47;3.93;;;3.33;;
3916;SDS011;1973;50.518;7.318;2023-05-14T15:24:13;3.70;;;3.40;;